Time;durP1;ratioP1;P1;durP2;ratioP2;P2;SDS_P1;SDS_P2;PMS_P1;PMS_P2;Temp;Humidity;BMP_temperature;BMP_pressure;BME280_temperature;BME280_humidity;BME280_pressure;Samples;Min_cycle;Max_cycle;Signal;HPM_P1;HPM_P2
2021/08/17 00:01:56;;;;;;;27.65;15.08;;;;;;;21.28;61.44;99696.63;1733460;82;21061;-73
2021/08/17 00:04:23;;;;;;;28.40;16.23;;;;;;;21.27;63.54;99701.14;1728984;82;21019;-74
2021/08/17 00:06:50;;;;;;;24.40;14.38;;;;;;;21.26;64.10;99701.30;1742060;82;22023;-74
2021/08/17 00:09:18;;;;;;;29.00;16.17;;;;;;;21.25;62.48;99702.27;1741415;82;21081;-74
2021/08/17 00:11:47;;;;;;;26.90;14.83;;;;;;;21.23;64.43;99698.88;1741612;82;21049;-72
2021/08/17 00:14:14;;;;;;;27.00;15.05;;;;;;;21.21;64.29;99707.06;1741466;82;21104;-75
2021/08/17 00:16:41;;;;;;;24.45;14.87;;;;;;;21.21;63.43;99702.17;1741764;82;21038;-73
2021/08/17 00:19:10;;;;;;;22.58;13.40;;;;;;;21.19;64.46;99700.99;1741581;82;21045;-74
2021/08/17 00:21:38;;;;;;;26.25;16.02;;;;;;;21.20;63.23;99704.52;1741672;82;21565;-74
2021/08/17 00:24:06;;;;;;;28.23;16.90;;;;;;;21.19;64.68;99702.80;1741329;82;21142;-75
2021/08/17 00:26:33;;;;;;;23.98;14.50;;;;;;;21.18;64.04;99699.78;1741635;82;21097;-73
2021/08/17 00:29:01;;;;;;;28.38;16.95;;;;;;;21.18;63.50;99703.30;1741561;82;21533;-73
2021/08/17 00:31:29;;;;;;;30.57;15.68;;;;;;;21.19;64.85;99706.34;1721382;82;21053;-75
2021/08/17 00:33:57;;;;;;;26.45;17.00;;;;;;;21.19;63.40;99700.12;1718021;83;21057;-75
2021/08/17 00:36:30;;;;;;;24.05;15.60;;;;;;;21.18;64.48;99698.44;1717692;83;21537;-74
2021/08/17 00:39:01;;;;;;;24.10;14.15;;;;;;;21.16;64.63;99700.77;1717692;83;21092;-74
2021/08/17 00:41:27;;;;;;;28.25;16.00;;;;;;;21.14;62.88;99696.04;1718099;83;21052;-74
2021/08/17 00:43:57;;;;;;;26.80;15.78;;;;;;;21.11;65.19;99702.98;1717840;83;21762;-76
2021/08/17 00:46:26;;;;;;;26.90;16.20;;;;;;;21.11;64.10;99699.47;1717693;83;21056;-74
2021/08/17 00:48:53;;;;;;;26.05;15.38;;;;;;;21.08;64.31;99708.62;1717793;83;22246;-74
2021/08/17 00:51:20;;;;;;;25.77;14.55;;;;;;;21.04;65.81;99703.17;1717586;83;21124;-73
2021/08/17 00:53:54;;;;;;;22.23;15.23;;;;;;;21.00;62.55;99703.07;1718399;83;21529;-72
2021/08/17 00:56:21;;;;;;;;;;;;;;;20.98;65.92;99702.39;1720484;83;21297;-74
2021/08/17 00:58:48;;;;;;;21.07;13.75;;;;;;;20.96;64.87;99700.33;1717923;83;20192;-73
2021/08/17 01:01:16;;;;;;;24.15;16.52;;;;;;;20.92;64.20;99702.41;1717841;83;21088;-73
2021/08/17 01:03:43;;;;;;;25.48;15.32;;;;;;;20.93;65.60;99699.23;1718010;83;21053;-73
2021/08/17 01:06:10;;;;;;;25.10;15.30;;;;;;;20.91;64.64;99702.53;1717794;82;21078;-74
2021/08/17 01:08:38;;;;;;;24.60;16.50;;;;;;;20.88;66.11;99696.13;1717960;82;21107;-72
2021/08/17 01:11:05;;;;;;;27.85;15.32;;;;;;;20.86;66.33;99696.74;1717910;83;21051;-75
2021/08/17 01:13:34;;;;;;;26.42;15.55;;;;;;;20.85;65.18;99695.91;1718006;83;21035;-75
2021/08/17 01:16:00;;;;;;;27.30;14.63;;;;;;;20.86;66.72;99700.76;1717616;83;21075;-74
2021/08/17 01:18:27;;;;;;;23.95;14.07;;;;;;;20.86;66.50;99695.41;1717869;83;21795;-72
2021/08/17 01:20:56;;;;;;;25.55;16.42;;;;;;;20.85;65.39;99695.06;1717897;83;21055;-73
2021/08/17 01:23:24;;;;;;;26.62;16.23;;;;;;;20.84;66.65;99704.05;1717809;83;21036;-73
2021/08/17 01:25:52;;;;;;;26.77;15.65;;;;;;;20.83;65.63;99699.70;1718268;83;21139;-74
2021/08/17 01:28:19;;;;;;;24.52;16.17;;;;;;;20.83;66.58;99707.72;1717565;83;21110;-74
2021/08/17 01:30:46;;;;;;;33.30;16.37;;;;;;;20.82;67.10;99706.02;1717699;83;21037;-74
2021/08/17 01:33:15;;;;;;;27.58;15.40;;;;;;;20.81;65.36;99707.00;1713101;83;21077;-73
2021/08/17 01:35:42;;;;;;;26.00;16.35;;;;;;;20.79;67.17;99707.12;1712379;83;21033;-75
2021/08/17 01:38:10;;;;;;;28.38;16.05;;;;;;;20.79;66.35;99708.96;1712144;83;21155;-74
2021/08/17 01:40:38;;;;;;;26.00;15.68;;;;;;;20.76;66.66;99715.43;1712654;83;21532;-74
2021/08/17 01:43:05;;;;;;;25.77;15.63;;;;;;;20.72;67.59;99712.16;1712185;83;21080;-75
2021/08/17 01:45:33;;;;;;;29.37;16.77;;;;;;;20.71;65.90;99713.15;1712271;83;21549;-75
2021/08/17 01:48:00;;;;;;;28.23;15.00;;;;;;;20.69;67.76;99712.44;1712300;83;21093;-74
2021/08/17 01:50:29;;;;;;;27.40;15.83;;;;;;;20.69;67.34;99715.11;1712090;83;21041;-74
2021/08/17 01:52:57;;;;;;;26.65;16.95;;;;;;;20.67;66.31;99709.53;1712131;83;20999;-75
2021/08/17 01:55:26;;;;;;;24.23;15.70;;;;;;;20.65;67.73;99705.64;1712303;83;21545;-73
2021/08/17 01:57:53;;;;;;;24.87;15.23;;;;;;;20.63;66.29;99711.61;1712610;83;21054;-73
2021/08/17 02:00:21;;;;;;;29.57;16.37;;;;;;;20.61;67.46;99706.88;1711677;83;21104;-75
2021/08/17 02:02:48;;;;;;;23.60;15.40;;;;;;;20.59;67.12;99702.17;1712176;83;21128;-74
2021/08/17 02:05:20;;;;;;;32.93;16.85;;;;;;;20.57;67.29;99705.47;1712040;83;21026;-74
2021/08/17 02:07:45;;;;;;;32.17;17.50;;;;;;;20.53;67.92;99699.98;1711948;83;21073;-78
2021/08/17 02:10:12;;;;;;;25.40;16.35;;;;;;;20.49;66.63;99691.86;1712100;83;21057;-75
2021/08/17 02:12:41;;;;;;;25.23;16.15;;;;;;;20.47;67.65;99699.16;1712138;83;21042;-75
2021/08/17 02:15:09;;;;;;;26.50;15.32;;;;;;;20.45;67.49;99702.45;1712092;83;21206;-76
2021/08/17 02:17:38;;;;;;;28.75;16.93;;;;;;;20.38;67.53;99693.25;1714662;83;21060;-75
2021/08/17 02:20:07;;;;;;;24.05;15.72;;;;;;;20.41;69.04;99693.02;1714530;83;21081;-74
2021/08/17 02:22:34;;;;;;;22.67;14.50;;;;;;;20.39;68.65;99693.63;1712435;83;22244;-77
2021/08/17 02:25:00;;;;;;;28.80;17.32;;;;;;;20.38;67.37;99693.25;1712494;83;21136;-74
2021/08/17 02:27:29;;;;;;;28.20;17.17;;;;;;;20.35;68.83;99685.00;1712678;83;22317;-73
2021/08/17 02:29:56;;;;;;;27.05;16.07;;;;;;;20.31;67.56;99689.78;1686577;82;21596;-74
2021/08/17 02:32:23;;;;;;;29.65;16.15;;;;;;;20.30;68.74;99695.25;1744060;81;21046;-77
2021/08/17 02:34:51;;;;;;;21.82;12.93;;;;;;;20.28;68.12;99690.02;1748168;82;21096;-75
2021/08/17 02:37:18;;;;;;;32.13;17.60;;;;;;;20.25;66.78;99687.62;1748434;82;21105;-75
2021/08/17 02:39:45;;;;;;;29.02;15.13;;;;;;;20.24;70.01;99688.58;1748272;82;21567;-74
2021/08/17 02:42:13;;;;;;;30.15;16.97;;;;;;;20.23;69.72;99689.57;1747297;82;21054;-73
2021/08/17 02:44:41;;;;;;;29.37;17.60;;;;;;;20.22;69.23;99685.68;1680027;85;21530;-77
2021/08/17 02:47:08;;;;;;;26.80;15.48;;;;;;;20.20;69.13;99687.16;1746543;81;21029;-77
2021/08/17 02:49:36;;;;;;;27.98;16.82;;;;;;;20.19;67.96;99685.45;1746208;82;21010;-75
2021/08/17 02:52:04;;;;;;;22.87;15.15;;;;;;;20.18;70.04;99686.44;1746454;82;21046;-74
2021/08/17 02:54:35;;;;;;;28.77;14.83;;;;;;;20.19;68.06;99690.80;1746107;82;21026;-72
2021/08/17 02:57:03;;;;;;;31.33;17.75;;;;;;;20.18;68.31;99690.45;1679785;85;27211;-74
2021/08/17 02:59:32;;;;;;;26.55;16.75;;;;;;;20.18;70.13;99681.09;1746110;81;21046;-73
2021/08/17 03:02:01;;;;;;;29.00;16.62;;;;;;;20.16;67.89;99683.05;1745821;82;21061;-72
2021/08/17 03:04:30;;;;;;;25.48;16.70;;;;;;;20.15;69.23;99681.33;1739106;82;21694;-79
2021/08/17 03:07:00;;;;;;;27.95;15.30;;;;;;;20.14;69.92;99676.98;1724573;82;21046;-76
2021/08/17 03:09:28;;;;;;;27.22;16.75;;;;;;;20.12;68.04;99681.59;1734302;82;21479;-79
2021/08/17 03:12:03;;;;;;;27.52;15.98;;;;;;;20.12;69.17;99680.27;1729830;82;21057;-78
2021/08/17 03:14:31;;;;;;;30.92;15.08;;;;;;;20.11;69.32;99685.27;1727174;82;21025;-80
2021/08/17 03:16:58;;;;;;;30.52;16.87;;;;;;;20.11;69.41;99679.42;1733137;82;21006;-80
2021/08/17 03:19:25;;;;;;;28.55;15.78;;;;;;;20.12;69.37;99677.59;1731057;82;21069;-80
2021/08/17 03:21:52;;;;;;;25.90;16.30;;;;;;;20.15;67.91;99678.66;1725278;82;21044;-80
2021/08/17 03:24:19;;;;;;;25.88;16.57;;;;;;;20.26;69.34;99675.93;1729716;82;21085;-79
2021/08/17 03:26:46;;;;;;;26.50;15.23;;;;;;;20.46;69.09;99676.08;1747479;82;21018;-79
2021/08/17 03:29:13;;;;;;;25.17;15.93;;;;;;;20.64;66.54;99673.19;1747645;82;21291;-80
2021/08/17 03:31:41;;;;;;;23.12;14.30;;;;;;;20.85;67.82;99674.49;1747616;82;21029;-79
2021/08/17 03:34:07;;;;;;;31.68;15.28;;;;;;;21.06;65.28;99674.44;1747429;81;21512;-78
2021/08/17 03:36:34;;;;;;;23.52;15.85;;;;;;;21.21;65.72;99668.70;1747884;82;21052;-79
2021/08/17 03:39:02;;;;;;;23.67;15.05;;;;;;;21.40;65.49;99668.80;1747674;82;21032;-80
2021/08/17 03:41:29;;;;;;;25.40;15.50;;;;;;;21.53;62.10;99668.06;1747338;82;21178;-79
2021/08/17 03:43:57;;;;;;;29.07;16.05;;;;;;;21.70;64.64;99673.23;1732428;82;21033;-79
2021/08/17 03:46:28;;;;;;;25.40;14.83;;;;;;;21.87;63.46;99673.02;1717938;83;21048;-79
2021/08/17 03:48:55;;;;;;;26.87;14.75;;;;;;;21.99;61.70;99670.57;1665283;85;21599;-79
2021/08/17 03:51:22;;;;;;;19.77;12.73;;;;;;;22.05;62.96;99668.30;1734099;82;21073;-79
2021/08/17 03:53:50;;;;;;;24.82;14.43;;;;;;;22.08;61.09;99668.01;1735902;82;21600;-78
2021/08/17 03:56:18;;;;;;;31.87;15.75;;;;;;;22.10;62.07;99676.77;1724691;82;21140;-80
2021/08/17 03:58:45;;;;;;;30.62;16.07;;;;;;;22.20;62.22;99672.23;1724934;82;21061;-80
2021/08/17 04:01:14;;;;;;;22.45;13.58;;;;;;;22.41;60.52;99681.00;1721450;82;21045;-79
2021/08/17 04:03:41;;;;;;;21.00;13.08;;;;;;;22.64;60.76;99679.34;1726516;82;21038;-79
2021/08/17 04:06:08;;;;;;;25.90;14.00;;;;;;;22.91;59.39;99668.28;1722043;82;21152;-78
2021/08/17 04:08:36;;;;;;;21.20;14.87;;;;;;;23.19;57.66;99669.17;1733909;82;21077;-79
2021/08/17 04:11:05;;;;;;;24.32;14.05;;;;;;;23.45;57.53;99664.80;1747532;82;26601;-81
2021/08/17 04:13:34;;;;;;;25.17;14.47;;;;;;;23.84;55.86;99671.79;1739204;82;21076;-80
2021/08/17 04:16:01;;;;;;;26.23;14.73;;;;;;;24.13;56.05;99665.31;1730743;82;21628;-80
2021/08/17 04:18:30;;;;;;;20.27;13.20;;;;;;;24.39;54.38;99670.23;1736780;82;22186;-78
2021/08/17 04:20:57;;;;;;;28.62;14.83;;;;;;;24.68;52.87;99662.38;1734067;82;21090;-80
2021/08/17 04:23:25;;;;;;;26.07;14.78;;;;;;;24.80;53.67;99665.16;1729826;82;21053;-79
2021/08/17 04:25:52;;;;;;;23.22;13.80;;;;;;;24.86;52.91;99665.00;1733766;82;21069;-80
2021/08/17 04:28:19;;;;;;;22.58;13.40;;;;;;;24.72;53.21;99665.09;1743777;82;21552;-79
2021/08/17 04:30:46;;;;;;;22.70;13.20;;;;;;;24.75;53.51;99664.77;1735242;82;21502;-79
2021/08/17 04:33:12;;;;;;;24.43;14.68;;;;;;;24.98;53.34;99670.95;1715762;82;21034;-81
2021/08/17 04:35:40;;;;;;;25.72;14.45;;;;;;;25.32;52.20;99662.37;1712446;83;21552;-79
2021/08/17 04:38:07;;;;;;;24.35;14.05;;;;;;;25.63;51.57;99671.23;1712769;83;21077;-78
2021/08/17 04:40:35;;;;;;;22.65;14.53;;;;;;;25.89;50.82;99668.44;1712248;83;21188;-78
2021/08/17 04:43:02;;;;;;;18.17;11.55;;;;;;;26.19;50.00;99667.44;1712260;83;21610;-79
2021/08/17 04:47:52;;;;;;;27.82;14.43;;;;;;;26.57;48.34;99671.33;1795882;79;22587;-78
2021/08/17 04:50:21;;;;;;;22.35;12.65;;;;;;;26.67;47.67;99670.30;1755716;81;21100;-79
2021/08/17 04:52:48;;;;;;;19.75;12.30;;;;;;;26.91;46.49;99668.86;1755752;81;21567;-78
2021/08/17 04:55:17;;;;;;;24.05;13.20;;;;;;;26.76;47.48;99670.10;1755658;81;21530;-81
2021/08/17 04:57:50;;;;;;;21.80;12.55;;;;;;;26.58;47.26;99674.35;1755941;81;20966;-79
2021/08/17 05:00:17;;;;;;;25.25;11.75;;;;;;;26.44;48.30;99675.02;1754388;81;21407;-79
2021/08/17 05:02:45;;;;;;;18.90;12.18;;;;;;;26.54;48.04;99678.41;1722085;83;21708;-77
2021/08/17 05:05:12;;;;;;;24.50;13.60;;;;;;;26.54;47.57;99680.23;1724211;83;21069;-78
2021/08/17 05:07:40;;;;;;;23.02;13.40;;;;;;;26.50;48.33;99677.05;1713971;83;20961;-78
2021/08/17 05:10:10;;;;;;;22.20;13.60;;;;;;;26.65;47.93;99681.78;1719809;83;21077;-78
2021/08/17 05:12:37;;;;;;;20.62;12.53;;;;;;;26.83;46.99;99684.28;1723695;83;22060;-79
2021/08/17 05:15:05;;;;;;;18.07;12.75;;;;;;;27.17;47.30;99675.86;1725448;83;21078;-79
2021/08/17 05:17:33;;;;;;;19.35;11.88;;;;;;;27.50;45.73;99675.25;1725333;83;21205;-78
2021/08/17 05:20:04;;;;;;;21.40;12.25;;;;;;;27.70;45.82;99674.30;1725298;82;21118;-80
2021/08/17 05:22:35;;;;;;;20.40;11.08;;;;;;;27.90;45.31;99670.63;1723202;82;21074;-79
2021/08/17 05:25:03;;;;;;;19.25;12.30;;;;;;;27.93;45.01;99678.89;1721275;82;21112;-78
2021/08/17 05:27:32;;;;;;;26.90;12.07;;;;;;;27.86;45.46;99680.63;1719928;83;21124;-78
2021/08/17 05:29:59;;;;;;;22.37;11.53;;;;;;;27.99;45.27;99684.94;1720899;83;21135;-77
2021/08/17 05:32:28;;;;;;;18.87;11.83;;;;;;;28.24;44.46;99682.36;1725561;82;21076;-80
2021/08/17 05:34:55;;;;;;;24.35;12.55;;;;;;;28.46;44.41;99686.59;1725806;82;21092;-80
2021/08/17 05:37:26;;;;;;;28.05;12.23;;;;;;;28.54;44.11;99676.22;1722962;83;21056;-79
2021/08/17 05:39:53;;;;;;;22.70;11.80;;;;;;;28.72;44.33;99674.00;1720211;82;21092;-79
2021/08/17 05:42:20;;;;;;;23.70;12.10;;;;;;;29.01;43.52;99671.82;1720891;83;21463;-78
2021/08/17 05:44:47;;;;;;;24.07;11.38;;;;;;;29.38;41.96;99674.10;1721343;83;21555;-80
2021/08/17 05:47:14;;;;;;;14.10;10.35;;;;;;;29.61;42.17;99667.17;1713263;83;21100;-78
2021/08/17 05:49:41;;;;;;;25.35;10.90;;;;;;;29.62;41.08;99672.07;1708565;83;21084;-78
2021/08/17 05:52:11;;;;;;;17.65;10.35;;;;;;;29.76;41.37;99673.92;1710219;83;21597;-78
2021/08/17 05:54:38;;;;;;;17.07;10.30;;;;;;;30.03;40.65;99676.92;1709254;82;21111;-80
2021/08/17 05:57:07;;;;;;;14.87;10.40;;;;;;;30.25;39.44;99678.59;1716866;82;21025;-80
2021/08/17 05:59:34;;;;;;;17.57;9.75;;;;;;;30.41;39.52;99669.33;1713994;82;21051;-80
2021/08/17 06:02:03;;;;;;;16.57;9.48;;;;;;;30.26;39.24;99672.14;1679355;83;21520;-79
2021/08/17 06:04:30;;;;;;;19.60;10.75;;;;;;;30.23;39.29;99673.87;1683948;84;21049;-78
2021/08/17 06:06:59;;;;;;;15.63;9.53;;;;;;;30.45;38.85;99667.91;1712050;83;21220;-80
2021/08/17 06:09:26;;;;;;;19.80;10.70;;;;;;;30.64;38.51;99673.16;1710780;83;21082;-78
2021/08/17 06:11:57;;;;;;;20.95;9.88;;;;;;;30.58;38.33;99665.81;1709634;83;21090;-80
2021/08/17 06:14:25;;;;;;;22.85;9.73;;;;;;;30.67;38.53;99673.30;1693778;83;21077;-80
2021/08/17 06:16:51;;;;;;;16.50;9.38;;;;;;;30.86;37.47;99663.63;1698703;83;22220;-79
2021/08/17 06:19:18;;;;;;;17.35;8.85;;;;;;;30.95;37.33;99670.58;1702781;83;21068;-79
2021/08/17 06:21:47;;;;;;;17.15;9.50;;;;;;;30.76;37.64;99671.25;1677434;85;21053;-79
2021/08/17 06:24:14;;;;;;;12.43;8.63;;;;;;;30.83;38.04;99668.05;1677602;84;21105;-80
2021/08/17 06:26:41;;;;;;;17.82;8.93;;;;;;;30.88;37.45;99669.70;1678129;84;21030;-79
2021/08/17 06:29:08;;;;;;;22.27;9.28;;;;;;;30.97;37.71;99669.86;1713132;83;21049;-81
2021/08/17 06:31:37;;;;;;;19.17;9.25;;;;;;;30.95;37.29;99667.86;1712619;83;21071;-78
2021/08/17 06:34:04;;;;;;;14.10;9.50;;;;;;;31.03;37.49;99664.95;1712640;83;21316;-79
2021/08/17 06:36:31;;;;;;;20.32;8.98;;;;;;;31.31;37.26;99666.75;1711600;82;21064;-80
2021/08/17 06:39:00;;;;;;;18.95;8.75;;;;;;;31.39;36.85;99659.80;1711557;82;21059;-81
2021/08/17 06:41:27;;;;;;;17.62;8.48;;;;;;;31.43;36.76;99674.70;1712145;83;21848;-79
2021/08/17 06:43:54;;;;;;;19.77;8.60;;;;;;;31.42;36.31;99659.94;1713434;83;21106;-79
2021/08/17 06:46:21;;;;;;;17.12;8.88;;;;;;;31.30;36.92;99660.48;1711489;82;21441;-79
2021/08/17 06:48:48;;;;;;;17.37;9.43;;;;;;;31.30;36.71;99655.05;1724695;83;21071;-78
2021/08/17 06:51:15;;;;;;;24.40;9.80;;;;;;;31.49;36.50;99653.45;1725422;82;21519;-81
2021/08/17 06:53:43;;;;;;;23.02;8.98;;;;;;;31.64;35.94;99659.28;1725196;82;20994;-79
2021/08/17 06:56:10;;;;;;;24.98;9.45;;;;;;;31.73;35.87;99663.49;1725013;83;21140;-81
2021/08/17 06:58:37;;;;;;;28.62;8.98;;;;;;;31.85;35.19;99659.11;1725589;83;21089;-80
2021/08/17 07:01:04;;;;;;;19.25;7.50;;;;;;;31.83;34.56;99661.72;1725162;83;21058;-79
2021/08/17 07:03:32;;;;;;;24.07;8.45;;;;;;;31.64;34.58;99655.20;1724493;82;21041;-80
2021/08/17 07:06:00;;;;;;;16.02;7.87;;;;;;;31.53;35.25;99656.09;1724789;82;21497;-81
2021/08/17 07:08:27;;;;;;;17.30;7.87;;;;;;;31.51;34.73;99656.81;1724274;83;21099;-77
2021/08/17 07:10:55;;;;;;;18.77;7.95;;;;;;;31.70;35.27;99654.36;1690843;84;21083;-78
2021/08/17 07:13:26;;;;;;;24.25;7.97;;;;;;;31.82;34.49;99642.33;1670877;85;21160;-77
2021/08/17 07:15:54;;;;;;;16.40;7.85;;;;;;;31.94;34.39;99646.97;1672784;85;21067;-77
2021/08/17 07:18:21;;;;;;;11.63;6.85;;;;;;;31.97;33.68;99649.30;1670258;85;21134;-78
2021/08/17 07:20:48;;;;;;;20.85;8.25;;;;;;;31.86;33.37;99641.71;1671681;85;21648;-79
2021/08/17 07:23:17;;;;;;;18.23;6.67;;;;;;;31.91;33.73;99644.67;1669477;85;21486;-77
2021/08/17 07:25:44;;;;;;;16.60;7.87;;;;;;;31.90;33.77;99659.31;1671897;85;21076;-79
2021/08/17 07:28:12;;;;;;;19.90;7.83;;;;;;;31.93;34.21;99645.80;1669236;85;21082;-79
2021/08/17 07:30:39;;;;;;;19.95;7.30;;;;;;;32.12;33.26;99644.20;1670029;85;21011;-79
2021/08/17 07:33:07;;;;;;;19.27;7.42;;;;;;;32.04;33.56;99649.84;1669883;85;21881;-78
2021/08/17 07:35:33;;;;;;;18.45;7.17;;;;;;;32.00;33.97;99639.05;1670652;85;21061;-78
2021/08/17 07:38:01;;;;;;;16.07;7.00;;;;;;;32.09;33.35;99647.33;1657702;85;21503;-78
2021/08/17 07:40:28;;;;;;;16.55;7.30;;;;;;;32.14;32.87;99647.53;1671984;85;21105;-79
2021/08/17 07:42:55;;;;;;;13.25;7.15;;;;;;;32.14;33.39;99642.08;1671238;85;21106;-75
2021/08/17 07:45:21;;;;;;;19.07;7.15;;;;;;;32.20;33.44;99641.25;1672971;85;21118;-76
2021/08/17 07:47:49;;;;;;;16.50;6.72;;;;;;;32.17;33.30;99652.58;1664577;85;21540;-74
2021/08/17 07:50:16;;;;;;;21.95;7.42;;;;;;;32.17;32.99;99647.12;1657193;85;22190;-74
2021/08/17 07:52:44;;;;;;;16.67;7.05;;;;;;;32.17;33.14;99634.87;1675364;85;21044;-75
2021/08/17 07:55:13;;;;;;;19.15;7.70;;;;;;;32.18;33.08;99638.73;1713234;82;21862;-75
2021/08/17 07:57:41;;;;;;;22.95;7.97;;;;;;;32.46;33.14;99640.92;1714860;83;21146;-75
2021/08/17 08:00:12;;;;;;;19.05;6.72;;;;;;;32.62;32.19;99643.23;1712097;83;21082;-76
2021/08/17 08:02:41;;;;;;;23.95;8.15;;;;;;;32.69;32.26;99638.59;1710223;82;21038;-76
2021/08/17 08:05:09;;;;;;;21.77;7.83;;;;;;;32.83;31.99;99645.39;1709585;83;21589;-75
2021/08/17 08:07:36;;;;;;;19.82;7.78;;;;;;;33.07;31.91;99639.27;1711266;83;21027;-75
2021/08/17 08:10:04;;;;;;;24.47;8.08;;;;;;;33.26;31.52;99640.23;1711269;82;21772;-76
2021/08/17 08:12:33;;;;;;;23.07;7.10;;;;;;;33.49;31.27;99641.06;1675420;85;21100;-75
2021/08/17 08:15:00;;;;;;;17.15;6.92;;;;;;;33.46;30.58;99639.31;1676543;84;21064;-77
2021/08/17 08:17:27;;;;;;;20.57;7.70;;;;;;;33.13;31.03;99642.52;1676390;84;21058;-76
2021/08/17 08:19:57;;;;;;;18.62;6.97;;;;;;;33.11;31.87;99641.89;1677534;85;21196;-76
2021/08/17 08:22:23;;;;;;;23.27;7.75;;;;;;;33.14;31.08;99642.81;1677352;85;22250;-75
2021/08/17 08:24:50;;;;;;;26.48;7.65;;;;;;;33.07;31.58;99640.63;1712508;83;21061;-76
2021/08/17 08:27:17;;;;;;;34.75;7.78;;;;;;;33.16;31.24;99642.07;1712291;83;21831;-76
2021/08/17 08:29:44;;;;;;;43.28;9.23;;;;;;;33.05;31.39;99625.01;1677926;85;21052;-74
2021/08/17 08:32:12;;;;;;;24.02;7.37;;;;;;;32.87;31.84;99634.38;1676727;84;21547;-76
2021/08/17 08:34:39;;;;;;;22.60;7.50;;;;;;;32.84;31.77;99647.91;1678089;85;21117;-75
2021/08/17 08:37:08;;;;;;;29.52;7.28;;;;;;;32.69;31.74;99639.12;1677565;85;21093;-74
2021/08/17 08:39:35;;;;;;;24.45;7.35;;;;;;;32.57;32.11;99638.95;1712715;83;21541;-74
2021/08/17 08:42:03;;;;;;;17.32;7.22;;;;;;;32.58;32.17;99639.28;1712342;83;21085;-74
2021/08/17 08:44:30;;;;;;;26.37;8.03;;;;;;;32.59;31.66;99634.13;1712356;83;21469;-78
2021/08/17 08:46:58;;;;;;;24.87;7.85;;;;;;;32.86;32.09;99628.63;1710697;82;21131;-76
2021/08/17 08:49:27;;;;;;;21.55;7.80;;;;;;;33.12;31.66;99628.55;1680075;85;21076;-77
2021/08/17 08:51:54;;;;;;;17.40;7.12;;;;;;;33.30;31.56;99628.37;1720512;83;21552;-78
2021/08/17 08:54:20;;;;;;;17.77;7.12;;;;;;;33.25;31.23;99626.83;1681427;84;21072;-74
2021/08/17 08:56:47;;;;;;;19.65;6.72;;;;;;;33.10;31.24;99614.28;1673922;84;21091;-76
2021/08/17 08:59:16;;;;;;;14.63;6.58;;;;;;;33.06;31.38;99623.97;1684857;85;21208;-75
2021/08/17 09:01:47;;;;;;;15.32;6.40;;;;;;;33.05;31.18;99615.46;1684663;85;21066;-74
2021/08/17 09:04:17;;;;;;;16.50;6.25;;;;;;;33.13;30.78;99619.33;1718409;83;28266;-75
2021/08/17 09:06:54;;;;;;;13.75;6.33;;;;;;;33.22;30.91;99624.84;1667787;85;21143;-75
2021/08/17 09:09:21;;;;;;;27.55;6.90;;;;;;;33.42;30.98;99623.36;1670313;85;21040;-75
2021/08/17 09:11:56;;;;;;;18.62;6.55;;;;;;;33.71;30.74;99617.58;1684896;85;21130;-75
2021/08/17 09:14:31;;;;;;;18.85;6.50;;;;;;;33.83;30.00;99618.53;1719396;82;21053;-75
2021/08/17 09:17:07;;;;;;;12.70;6.28;;;;;;;33.84;30.14;99631.97;1717001;83;20979;-75
2021/08/17 09:19:39;;;;;;;23.12;6.90;;;;;;;33.73;30.26;99621.75;1697518;83;21474;-75
2021/08/17 09:22:22;;;;;;;15.43;6.20;;;;;;;33.67;30.22;99613.60;1722123;83;20954;-75
2021/08/17 09:24:58;;;;;;;26.15;6.25;;;;;;;33.62;29.83;99614.27;1687422;85;21091;-76
2021/08/17 09:27:29;;;;;;;17.07;6.08;;;;;;;33.39;30.09;99612.06;1682390;85;21588;-74
2021/08/17 09:30:07;;;;;;;18.90;6.28;;;;;;;33.21;30.84;99609.52;1674494;85;21116;-75
2021/08/17 09:32:33;;;;;;;20.52;6.95;;;;;;;32.92;30.92;99615.47;1713991;83;21054;-75
2021/08/17 09:35:03;;;;;;;21.25;6.92;;;;;;;32.96;31.44;99616.72;1681722;85;21666;-77
2021/08/17 09:37:33;;;;;;;21.27;6.83;;;;;;;33.19;31.23;99611.61;1680489;85;21140;-73
2021/08/17 09:40:03;;;;;;;25.17;6.75;;;;;;;33.53;31.16;99619.11;1672458;85;21094;-75
2021/08/17 09:42:34;;;;;;;19.35;6.87;;;;;;;33.61;30.60;99599.78;1668546;85;21074;-77
2021/08/17 09:45:17;;;;;;;42.87;7.07;;;;;;;33.56;30.25;99602.28;1684961;85;21596;-78
2021/08/17 09:47:56;;;;;;;18.17;6.72;;;;;;;33.56;30.29;99602.28;1717336;83;21077;-76
2021/08/17 09:50:29;;;;;;;20.52;6.80;;;;;;;33.56;30.24;99596.82;1709694;83;21675;-76
2021/08/17 09:53:15;;;;;;;21.40;6.33;;;;;;;33.57;30.27;99608.09;1710246;83;21074;-76
2021/08/17 09:55:57;;;;;;;23.38;6.55;;;;;;;33.60;30.63;99598.09;1683922;83;21100;-77
2021/08/17 09:58:37;;;;;;;14.33;5.87;;;;;;;33.53;30.01;99601.90;1697874;83;21074;-74
2021/08/17 10:01:07;;;;;;;15.95;5.87;;;;;;;33.48;29.84;99581.26;1676142;85;21034;-76
2021/08/17 10:03:35;;;;;;;38.00;6.47;;;;;;;33.78;29.91;99597.87;1677294;85;21124;-74
2021/08/17 10:06:02;;;;;;;12.40;5.90;;;;;;;33.92;28.78;99600.81;1684761;84;21581;-77
2021/08/17 10:08:32;;;;;;;15.25;5.60;;;;;;;33.93;28.55;99601.64;1712476;83;21026;-77
2021/08/17 10:11:01;;;;;;;25.85;5.83;;;;;;;33.77;28.72;99605.75;1712265;82;21303;-77
2021/08/17 10:13:31;;;;;;;36.55;5.15;;;;;;;33.70;29.16;99606.33;1681697;84;21089;-74
2021/08/17 10:16:00;;;;;;;16.35;6.42;;;;;;;33.53;29.10;99608.19;1711084;83;21089;-76
2021/08/17 10:18:32;;;;;;;16.85;5.20;;;;;;;33.33;29.69;99607.46;1677875;85;21085;-77
2021/08/17 10:21:02;;;;;;;20.75;5.25;;;;;;;33.26;29.76;99602.03;1697163;83;21518;-77
2021/08/17 10:23:32;;;;;;;15.68;5.72;;;;;;;33.23;29.51;99597.02;1674339;84;21013;-77
2021/08/17 10:26:07;;;;;;;17.98;5.58;;;;;;;33.16;29.40;99613.95;1712585;83;21560;-74
2021/08/17 10:28:40;;;;;;;15.28;5.15;;;;;;;33.04;29.50;99612.41;1712552;83;21121;-77
2021/08/17 10:31:19;;;;;;;20.90;5.53;;;;;;;32.88;30.29;99615.61;1698816;83;21089;-78
2021/08/17 10:33:53;;;;;;;12.80;4.42;;;;;;;32.58;30.55;99616.94;1677695;85;21069;-77
2021/08/17 10:36:42;;;;;;;12.23;5.15;;;;;;;32.39;30.80;99625.94;1712187;82;21041;-80
2021/08/17 10:39:26;;;;;;;12.40;5.47;;;;;;;32.32;31.28;99620.48;1681492;84;21547;-78
2021/08/17 10:41:54;;;;;;;10.50;4.58;;;;;;;32.28;31.40;99626.57;1675333;85;21111;-79
2021/08/17 10:44:24;;;;;;;20.05;5.72;;;;;;;32.25;31.70;99626.47;1677726;85;21367;-77
2021/08/17 10:46:57;;;;;;;12.47;4.80;;;;;;;32.39;31.79;99618.63;1702529;83;21238;-77
2021/08/17 10:49:29;;;;;;;14.07;5.22;;;;;;;32.64;31.16;99611.68;1710577;83;21085;-77
2021/08/17 10:52:05;;;;;;;15.50;5.85;;;;;;;32.90;30.71;99612.12;1690433;84;21025;-77
2021/08/17 10:54:35;;;;;;;15.95;5.85;;;;;;;33.13;31.41;99619.33;1690182;84;21087;-77
2021/08/17 10:57:21;;;;;;;15.40;5.10;;;;;;;33.38;29.97;99614.46;1690491;84;22073;-77
2021/08/17 10:59:50;;;;;;;13.38;4.97;;;;;;;33.42;29.87;99614.34;1690455;84;21205;-76
2021/08/17 11:02:23;;;;;;;22.00;5.85;;;;;;;33.29;29.52;99615.77;1690126;84;21111;-74
2021/08/17 11:04:50;;;;;;;16.55;5.22;;;;;;;33.38;29.46;99609.00;1690434;84;21544;-74
2021/08/17 11:07:31;;;;;;;11.48;5.20;;;;;;;33.61;29.31;99607.97;1686594;84;21140;-77
2021/08/17 11:10:03;;;;;;;9.53;5.12;;;;;;;33.89;29.00;99605.87;1694642;84;21547;-77
2021/08/17 11:12:35;;;;;;;25.25;5.60;;;;;;;33.84;28.55;99606.53;1696445;84;21136;-76
2021/08/17 11:15:07;;;;;;;17.25;6.17;;;;;;;33.80;28.59;99601.23;1687933;83;21025;-75
2021/08/17 11:17:35;;;;;;;14.75;5.65;;;;;;;33.83;28.86;99602.14;1681951;84;21096;-75
2021/08/17 11:20:05;;;;;;;15.72;4.30;;;;;;;34.06;28.72;99596.91;1671271;84;21198;-75
2021/08/17 11:22:39;;;;;;;15.28;5.50;;;;;;;34.22;27.19;99602.91;1672420;85;21078;-75
2021/08/17 11:25:08;;;;;;;25.23;5.30;;;;;;;34.11;27.88;99604.46;1690443;84;21067;-75
2021/08/17 11:27:41;;;;;;;9.73;4.62;;;;;;;34.02;27.72;99605.77;1690692;84;21112;-75
2021/08/17 11:30:13;;;;;;;25.65;5.58;;;;;;;34.12;27.80;99593.00;1662802;86;21048;-75
2021/08/17 11:32:50;;;;;;;27.67;5.75;;;;;;;34.16;28.26;99601.05;1673345;85;21157;-74